createdAt,value
2023-01-07T00:08:02.114Z,91.2
2023-01-07T00:20:03.758Z,91.4
2023-01-07T00:32:02.114Z,91.4
2023-01-07T00:44:02.150Z,90.5
2023-01-07T00:56:02.199Z,89.8
2023-01-07T01:08:02.126Z,89.9
2023-01-07T01:20:02.106Z,90.4
2023-01-07T01:32:02.159Z,90.6
2023-01-07T01:44:02.103Z,90.9
2023-01-07T01:56:02.125Z,90.9
2023-01-07T02:08:02.111Z,90.8
2023-01-07T02:20:02.130Z,90.6
2023-01-07T02:32:02.138Z,90.3
2023-01-07T02:44:02.133Z,90.3
2023-01-07T02:56:02.124Z,90.4
2023-01-07T03:08:02.102Z,90.4
2023-01-07T03:20:02.137Z,89.9
2023-01-07T03:32:02.205Z,90.0
2023-01-07T03:44:02.103Z,89.8
2023-01-07T03:56:02.225Z,89.6
2023-01-07T04:08:02.110Z,89.1
2023-01-07T04:20:02.151Z,88.9
2023-01-07T04:32:02.120Z,88.5
2023-01-07T04:44:02.189Z,87.9
2023-01-07T04:56:02.100Z,87.4
2023-01-07T05:08:02.189Z,86.9
2023-01-07T05:20:02.115Z,87.3
2023-01-07T05:32:02.106Z,87.6
2023-01-07T05:44:02.109Z,87.5
2023-01-07T05:56:02.186Z,87.8
2023-01-07T06:08:02.110Z,87.4
2023-01-07T06:20:02.134Z,87.5
2023-01-07T06:32:02.111Z,87.1
2023-01-07T06:44:02.110Z,86.5
2023-01-07T06:56:02.210Z,86.4
2023-01-07T07:08:02.112Z,86.1
2023-01-07T07:20:02.109Z,85.2
2023-01-07T07:32:02.176Z,85.2
2023-01-07T07:44:02.125Z,85.7
2023-01-07T07:56:02.107Z,85.9
2023-01-07T08:08:02.114Z,85.8
2023-01-07T08:20:02.110Z,85.6
2023-01-07T08:32:02.104Z,85.0
2023-01-07T08:44:02.113Z,83.3
2023-01-07T08:56:02.135Z,82.7
2023-01-07T09:08:02.102Z,81.6
2023-01-07T09:20:02.114Z,80.7
2023-01-07T09:32:02.106Z,81.0
2023-01-07T09:44:02.114Z,81.0
2023-01-07T09:56:10.666Z,79.9
2023-01-07T10:08:30.438Z,78.2
2023-01-07T10:20:02.151Z,77.6
2023-01-07T10:32:02.271Z,77.2
2023-01-07T10:44:02.142Z,76.1
2023-01-07T10:56:02.198Z,75.5
2023-01-07T11:08:02.110Z,74.2
2023-01-07T11:20:02.134Z,73.5
2023-01-07T11:32:02.183Z,73.9
2023-01-07T11:44:02.111Z,73.0
2023-01-07T11:56:02.173Z,72.8
2023-01-07T12:08:02.177Z,73.6
2023-01-07T12:20:02.100Z,72.6
2023-01-07T12:32:02.185Z,71.9
2023-01-07T12:44:02.102Z,72.8
2023-01-07T12:56:02.111Z,73.5
2023-01-07T13:08:04.328Z,73.7
2023-01-07T13:20:04.731Z,73.9
2023-01-07T13:32:02.111Z,73.7
2023-01-07T13:44:02.135Z,73.7
2023-01-07T13:56:02.101Z,73.7
2023-01-07T14:08:02.111Z,73.8
2023-01-07T14:20:02.154Z,72.3
2023-01-07T14:32:02.100Z,72.4
2023-01-07T14:44:02.148Z,71.2
2023-01-07T14:56:02.146Z,70.9
2023-01-07T15:08:02.104Z,69.9
2023-01-07T15:20:02.109Z,71.1
2023-01-07T15:32:02.187Z,72.0
2023-01-07T15:44:02.132Z,72.1
2023-01-07T15:56:02.122Z,72.6
2023-01-07T16:08:02.208Z,73.7
2023-01-07T16:20:02.220Z,75.5
2023-01-07T16:32:02.106Z,75.8
2023-01-07T16:44:02.122Z,76.5
2023-01-07T16:56:02.114Z,77.7
2023-01-07T17:08:02.116Z,78.4
2023-01-07T17:20:02.137Z,79.1
2023-01-07T17:32:02.105Z,78.8
2023-01-07T17:44:02.113Z,78.4
2023-01-07T17:56:02.108Z,78.1
2023-01-07T18:08:02.160Z,77.2
2023-01-07T18:20:02.175Z,77.6
2023-01-07T18:32:02.177Z,77.7
2023-01-07T18:44:02.126Z,76.8
2023-01-07T18:56:02.218Z,75.7
2023-01-07T19:08:02.121Z,74.2
2023-01-07T19:20:02.106Z,72.7
2023-01-07T19:32:02.284Z,72.2
2023-01-07T19:44:02.112Z,72.5
2023-01-07T19:56:02.122Z,73.1
2023-01-07T20:08:02.208Z,72.7
2023-01-07T20:20:02.185Z,73.6
2023-01-07T20:32:02.199Z,75.0
2023-01-07T20:44:02.142Z,74.9
2023-01-07T20:56:02.111Z,74.9
2023-01-07T21:08:02.100Z,74.9
2023-01-07T21:20:02.114Z,74.9
2023-01-07T21:32:02.255Z,74.9
2023-01-07T21:44:02.125Z,74.9
2023-01-07T21:56:02.100Z,74.9
2023-01-07T22:08:02.113Z,74.9
2023-01-07T22:20:02.124Z,74.9
2023-01-07T22:32:02.167Z,74.9
2023-01-07T22:44:02.205Z,74.9
2023-01-07T22:56:02.109Z,74.9
2023-01-07T23:08:02.107Z,74.9
2023-01-07T23:20:02.109Z,74.9
2023-01-07T23:32:02.157Z,74.9
2023-01-07T23:44:02.203Z,74.9
2023-01-07T23:56:02.128Z,74.9
